sensor_id;sensor_type;location;lat;lon;timestamp;P1;durP1;ratioP1;P2;durP2;ratioP2
9310;SDS011;4694;52.464;13.480;2023-04-01T16:09:11;11.35;;;5.53;;
9310;SDS011;4694;52.464;13.480;2023-04-01T16:11:41;7.93;;;5.93;;
9310;SDS011;4694;52.464;13.480;2023-04-01T16:14:19;7.40;;;5.57;;
9310;SDS011;4694;52.464;13.480;2023-04-01T16:16:54;7.35;;;6.40;;
9310;SDS011;4694;52.464;13.480;2023-04-01T16:19:37;9.07;;;5.85;;
9310;SDS011;4694;52.464;13.480;2023-04-01T16:22:11;13.85;;;7.32;;
9310;SDS011;4694;52.464;13.480;2023-04-01T16:24:43;9.38;;;6.28;;
9310;SDS011;4694;52.464;13.480;2023-04-01T16:27:13;11.90;;;7.93;;
9310;SDS011;4694;52.464;13.480;2023-04-01T16:29:45;8.82;;;7.05;;
9310;SDS011;4694;52.464;13.480;2023-04-01T16:32:17;9.65;;;7.10;;
9310;SDS011;4694;52.464;13.480;2023-04-01T16:34:47;10.27;;;8.18;;
9310;SDS011;4694;52.464;13.480;2023-04-01T16:37:22;10.13;;;6.68;;
9310;SDS011;4694;52.464;13.480;2023-04-01T16:40:01;8.10;;;6.20;;
9310;SDS011;4694;52.464;13.480;2023-04-01T16:42:32;9.10;;;8.10;;
9310;SDS011;4694;52.464;13.480;2023-04-01T16:45:02;9.93;;;7.25;;
9310;SDS011;4694;52.464;13.480;2023-04-01T16:47:30;9.85;;;7.30;;
9310;SDS011;4694;52.464;13.480;2023-04-01T16:50:00;6.88;;;6.18;;
9310;SDS011;4694;52.464;13.480;2023-04-01T16:52:36;6.85;;;6.00;;
9310;SDS011;4694;52.464;13.480;2023-04-01T16:55:14;8.70;;;6.20;;
9310;SDS011;4694;52.464;13.480;2023-04-01T16:57:45;9.00;;;6.97;;
9310;SDS011;4694;52.464;13.480;2023-04-01T17:00:17;8.95;;;7.40;;
9310;SDS011;4694;52.464;13.480;2023-04-01T17:02:49;11.85;;;8.50;;
9310;SDS011;4694;52.464;13.480;2023-04-01T17:05:16;10.02;;;7.07;;
9310;SDS011;4694;52.464;13.480;2023-04-01T17:07:46;10.90;;;8.13;;
9310;SDS011;4694;52.464;13.480;2023-04-01T17:10:33;10.30;;;7.65;;
9310;SDS011;4694;52.464;13.480;2023-04-01T17:13:06;7.75;;;6.22;;
9310;SDS011;4694;52.464;13.480;2023-04-01T17:15:38;7.75;;;6.95;;
9310;SDS011;4694;52.464;13.480;2023-04-01T17:18:09;6.93;;;6.03;;
9310;SDS011;4694;52.464;13.480;2023-04-01T17:20:40;7.05;;;6.32;;
9310;SDS011;4694;52.464;13.480;2023-04-01T17:25:40;7.85;;;5.15;;
9310;SDS011;4694;52.464;13.480;2023-04-01T17:28:20;6.35;;;5.68;;
9310;SDS011;4694;52.464;13.480;2023-04-01T17:30:52;5.78;;;4.85;;
9310;SDS011;4694;52.464;13.480;2023-04-01T17:35:50;7.05;;;6.05;;
9310;SDS011;4694;52.464;13.480;2023-04-01T17:38:34;8.85;;;6.95;;
9310;SDS011;4694;52.464;13.480;2023-04-01T17:41:08;7.47;;;6.65;;
9310;SDS011;4694;52.464;13.480;2023-04-01T17:43:43;9.98;;;7.57;;
9310;SDS011;4694;52.464;13.480;2023-04-01T17:46:20;8.95;;;7.80;;
9310;SDS011;4694;52.464;13.480;2023-04-01T17:48:51;10.10;;;7.72;;
9310;SDS011;4694;52.464;13.480;2023-04-01T17:51:24;9.30;;;7.15;;
9310;SDS011;4694;52.464;13.480;2023-04-01T17:53:58;11.02;;;8.55;;
9310;SDS011;4694;52.464;13.480;2023-04-01T17:59:16;11.80;;;7.93;;
9310;SDS011;4694;52.464;13.480;2023-04-01T18:01:49;10.68;;;7.20;;
9310;SDS011;4694;52.464;13.480;2023-04-01T18:04:25;9.80;;;6.68;;
9310;SDS011;4694;52.464;13.480;2023-04-01T18:07:02;7.53;;;6.80;;
9310;SDS011;4694;52.464;13.480;2023-04-01T18:12:05;7.03;;;6.00;;
9310;SDS011;4694;52.464;13.480;2023-04-01T18:14:57;11.43;;;6.85;;
9310;SDS011;4694;52.464;13.480;2023-04-01T18:17:27;10.55;;;7.80;;
9310;SDS011;4694;52.464;13.480;2023-04-01T18:22:45;13.48;;;6.05;;
9310;SDS011;4694;52.464;13.480;2023-04-01T18:25:17;8.02;;;6.95;;
9310;SDS011;4694;52.464;13.480;2023-04-01T18:27:45;8.30;;;4.70;;
9310;SDS011;4694;52.464;13.480;2023-04-01T18:30:15;10.70;;;5.28;;
9310;SDS011;4694;52.464;13.480;2023-04-01T18:32:44;5.80;;;4.13;;
9310;SDS011;4694;52.464;13.480;2023-04-01T18:35:17;5.93;;;4.22;;
9310;SDS011;4694;52.464;13.480;2023-04-01T18:37:47;6.45;;;3.85;;
9310;SDS011;4694;52.464;13.480;2023-04-01T18:40:19;5.40;;;4.10;;
9310;SDS011;4694;52.464;13.480;2023-04-01T18:42:53;8.40;;;5.10;;
9310;SDS011;4694;52.464;13.480;2023-04-01T18:45:26;8.23;;;4.88;;
9310;SDS011;4694;52.464;13.480;2023-04-01T18:47:58;6.35;;;3.70;;
9310;SDS011;4694;52.464;13.480;2023-04-01T18:50:27;7.45;;;5.00;;
9310;SDS011;4694;52.464;13.480;2023-04-01T18:52:57;9.60;;;5.07;;
9310;SDS011;4694;52.464;13.480;2023-04-01T18:55:33;8.57;;;5.00;;
9310;SDS011;4694;52.464;13.480;2023-04-01T18:58:18;8.40;;;4.55;;
9310;SDS011;4694;52.464;13.480;2023-04-01T19:00:49;6.10;;;4.60;;
9310;SDS011;4694;52.464;13.480;2023-04-01T19:03:20;4.10;;;3.70;;
9310;SDS011;4694;52.464;13.480;2023-04-01T19:05:48;6.20;;;3.58;;
9310;SDS011;4694;52.464;13.480;2023-04-01T19:08:18;7.68;;;4.30;;
9310;SDS011;4694;52.464;13.480;2023-04-01T19:10:48;9.88;;;6.05;;
9310;SDS011;4694;52.464;13.480;2023-04-01T19:13:21;5.32;;;3.83;;
9310;SDS011;4694;52.464;13.480;2023-04-01T19:18:28;8.27;;;3.65;;
9310;SDS011;4694;52.464;13.480;2023-04-01T19:20:59;7.30;;;4.43;;
9310;SDS011;4694;52.464;13.480;2023-04-01T19:23:34;6.50;;;4.43;;
9310;SDS011;4694;52.464;13.480;2023-04-01T19:26:09;7.40;;;4.88;;
9310;SDS011;4694;52.464;13.480;2023-04-01T19:28:39;9.10;;;4.97;;
9310;SDS011;4694;52.464;13.480;2023-04-01T19:31:15;7.95;;;5.38;;
9310;SDS011;4694;52.464;13.480;2023-04-01T19:33:51;6.00;;;5.32;;
9310;SDS011;4694;52.464;13.480;2023-04-01T19:36:21;8.35;;;5.05;;
9310;SDS011;4694;52.464;13.480;2023-04-01T19:38:52;10.20;;;5.00;;
9310;SDS011;4694;52.464;13.480;2023-04-01T19:41:23;8.25;;;5.07;;
9310;SDS011;4694;52.464;13.480;2023-04-01T19:43:56;7.55;;;5.43;;
9310;SDS011;4694;52.464;13.480;2023-04-01T19:46:27;8.90;;;5.82;;
9310;SDS011;4694;52.464;13.480;2023-04-01T19:49:07;10.35;;;4.65;;
9310;SDS011;4694;52.464;13.480;2023-04-01T19:51:39;10.50;;;5.90;;
9310;SDS011;4694;52.464;13.480;2023-04-01T19:56:36;12.20;;;5.72;;
9310;SDS011;4694;52.464;13.480;2023-04-01T19:59:07;12.50;;;6.30;;
9310;SDS011;4694;52.464;13.480;2023-04-01T20:01:41;8.27;;;4.65;;
9310;SDS011;4694;52.464;13.480;2023-04-01T20:04:13;8.88;;;5.13;;
9310;SDS011;4694;52.464;13.480;2023-04-01T20:06:43;9.05;;;5.43;;
9310;SDS011;4694;52.464;13.480;2023-04-01T20:11:44;8.60;;;3.92;;
9310;SDS011;4694;52.464;13.480;2023-04-01T20:14:16;7.28;;;4.75;;
9310;SDS011;4694;52.464;13.480;2023-04-01T20:16:54;11.05;;;5.07;;
9310;SDS011;4694;52.464;13.480;2023-04-01T20:19:27;7.75;;;5.43;;
9310;SDS011;4694;52.464;13.480;2023-04-01T20:21:57;8.88;;;4.80;;
9310;SDS011;4694;52.464;13.480;2023-04-01T20:24:26;9.15;;;4.85;;
9310;SDS011;4694;52.464;13.480;2023-04-01T20:29:37;8.77;;;4.60;;
9310;SDS011;4694;52.464;13.480;2023-04-01T20:32:06;12.27;;;6.30;;
9310;SDS011;4694;52.464;13.480;2023-04-01T20:34:46;9.60;;;5.60;;
9310;SDS011;4694;52.464;13.480;2023-04-01T20:39:48;10.82;;;5.85;;
9310;SDS011;4694;52.464;13.480;2023-04-01T20:42:23;17.33;;;6.28;;
9310;SDS011;4694;52.464;13.480;2023-04-01T20:44:55;12.05;;;6.47;;
9310;SDS011;4694;52.464;13.480;2023-04-01T20:47:25;14.00;;;6.50;;
9310;SDS011;4694;52.464;13.480;2023-04-01T20:49:57;9.80;;;6.65;;
9310;SDS011;4694;52.464;13.480;2023-04-01T20:52:29;11.38;;;6.50;;
9310;SDS011;4694;52.464;13.480;2023-04-01T20:55:13;8.43;;;6.05;;
9310;SDS011;4694;52.464;13.480;2023-04-01T20:57:48;13.65;;;6.85;;
9310;SDS011;4694;52.464;13.480;2023-04-01T21:00:24;14.02;;;6.35;;
9310;SDS011;4694;52.464;13.480;2023-04-01T21:02:59;9.55;;;5.88;;
9310;SDS011;4694;52.464;13.480;2023-04-01T21:08:12;8.27;;;6.25;;
9310;SDS011;4694;52.464;13.480;2023-04-01T21:10:43;10.45;;;6.57;;
9310;SDS011;4694;52.464;13.480;2023-04-01T21:13:17;12.20;;;6.85;;
9310;SDS011;4694;52.464;13.480;2023-04-01T21:15:50;10.57;;;5.63;;
9310;SDS011;4694;52.464;13.480;2023-04-01T21:18:25;11.18;;;5.80;;
9310;SDS011;4694;52.464;13.480;2023-04-01T21:21:03;15.50;;;5.70;;
9310;SDS011;4694;52.464;13.480;2023-04-01T21:23:41;10.90;;;5.63;;
9310;SDS011;4694;52.464;13.480;2023-04-01T21:26:12;14.30;;;5.85;;
